Time;durP1;ratioP1;P1;durP2;ratioP2;P2;SDS_P1;SDS_P2;PMS_P1;PMS_P2;Temp;Humidity;BMP_temperature;BMP_pressure;BME280_temperature;BME280_humidity;BME280_pressure;Samples;Min_cycle;Max_cycle;Signal;HPM_P1;HPM_P2
2022/12/18 00:03:03;;;;;;;33.42;22.40;;;5.60;99.90;;;;;;4989825;28;20049;-60
2022/12/18 00:06:08;;;;;;;33.47;19.90;;;5.60;99.90;;;;;;4989921;28;20041;-56
2022/12/18 00:09:12;;;;;;;34.33;19.73;;;5.60;99.90;;;;;;4989880;28;20053;-60
2022/12/18 00:12:19;;;;;;;23.15;13.68;;;5.50;99.90;;;;;;4990198;28;20050;-62
2022/12/18 00:15:22;;;;;;;26.50;15.77;;;5.50;99.90;;;;;;4991264;28;20061;-60
2022/12/18 00:18:26;;;;;;;30.95;16.58;;;5.40;99.90;;;;;;4993847;28;20046;-60
2022/12/18 00:21:32;;;;;;;29.92;17.23;;;5.40;99.90;;;;;;4993737;28;20046;-60
2022/12/18 00:24:36;;;;;;;24.50;14.30;;;5.40;99.90;;;;;;4992719;28;20053;-60
2022/12/18 00:27:40;;;;;;;26.35;13.60;;;5.30;99.90;;;;;;4993816;28;20413;-58
2022/12/18 00:30:44;;;;;;;27.35;15.07;;;5.30;99.90;;;;;;4993865;28;20054;-60
2022/12/18 00:33:48;;;;;;;30.95;16.33;;;5.40;99.90;;;;;;4992734;28;20054;-60
2022/12/18 00:36:52;;;;;;;46.47;22.33;;;5.40;99.90;;;;;;4993583;28;20046;-60
2022/12/18 00:39:56;;;;;;;38.30;21.48;;;5.30;99.90;;;;;;4992468;28;20064;-59
2022/12/18 00:43:00;;;;;;;35.03;22.10;;;5.40;99.90;;;;;;4993578;28;20049;-58
2022/12/18 00:46:05;;;;;;;41.97;21.33;;;5.50;99.90;;;;;;4993198;28;20057;-60
2022/12/18 00:49:09;;;;;;;40.83;19.33;;;5.50;99.90;;;;;;4993353;28;20402;-59
2022/12/18 00:52:13;;;;;;;33.50;20.73;;;5.50;99.90;;;;;;4993500;28;20041;-59
2022/12/18 00:55:17;;;;;;;39.65;22.33;;;5.40;99.90;;;;;;4991091;28;20544;-59
2022/12/18 00:58:22;;;;;;;99.15;37.92;;;5.40;99.90;;;;;;4992205;28;20053;-60
2022/12/18 01:01:26;;;;;;;78.40;36.95;;;5.50;99.90;;;;;;4993253;28;20041;-59
2022/12/18 01:04:34;;;;;;;41.00;22.35;;;5.50;99.90;;;;;;4991431;28;20053;-59
2022/12/18 01:07:38;;;;;;;37.20;18.58;;;5.60;99.90;;;;;;4992974;28;20061;-59
2022/12/18 01:10:43;;;;;;;33.88;18.00;;;5.60;99.90;;;;;;4992338;28;20037;-59
2022/12/18 01:13:47;;;;;;;41.15;19.60;;;5.60;99.90;;;;;;4991908;28;20057;-60
2022/12/18 01:16:51;;;;;;;32.78;16.63;;;5.70;99.90;;;;;;4992382;28;20049;-58
2022/12/18 01:19:55;;;;;;;24.30;14.07;;;5.70;99.90;;;;;;4991849;28;20068;-58
2022/12/18 01:22:59;;;;;;;34.63;18.52;;;5.60;99.90;;;;;;4992556;28;20181;-59
2022/12/18 01:26:09;;;;;;;40.97;20.73;;;5.60;99.90;;;;;;4991690;28;20065;-58
2022/12/18 01:29:13;;;;;;;25.95;15.65;;;5.50;99.90;;;;;;4991628;28;20045;-58
2022/12/18 01:32:17;;;;;;;27.17;13.02;;;5.50;99.90;;;;;;4992198;28;20045;-59
2022/12/18 01:35:22;;;;;;;21.67;11.82;;;5.40;99.90;;;;;;4991008;28;20342;-57
2022/12/18 01:38:26;;;;;;;23.92;13.25;;;5.40;99.90;;;;;;4991621;28;20639;-58
2022/12/18 01:42:01;;;;;;;26.10;13.60;;;5.40;99.90;;;;;;4992157;28;20049;-59
2022/12/18 01:45:13;;;;;;;22.30;12.30;;;5.30;99.90;;;;;;4991262;28;20422;-58
2022/12/18 01:48:20;;;;;;;23.63;12.77;;;5.40;99.90;;;;;;4990970;28;20401;-59
2022/12/18 01:51:26;;;;;;;26.75;12.50;;;5.30;99.90;;;;;;4992081;28;20049;-58
2022/12/18 01:54:30;;;;;;;22.55;11.90;;;5.40;99.90;;;;;;4990951;28;20053;-59
2022/12/18 01:57:35;;;;;;;20.42;12.02;;;5.30;99.90;;;;;;4991437;28;20045;-59
2022/12/18 02:00:41;;;;;;;23.40;12.27;;;5.40;99.90;;;;;;4991965;28;20053;-60
2022/12/18 02:03:45;;;;;;;23.15;12.98;;;5.50;99.90;;;;;;4990932;28;20049;-60
2022/12/18 02:07:13;;;;;;;27.50;13.23;;;5.50;99.90;;;;;;4990514;28;20057;-59
2022/12/18 02:10:27;;;;;;;20.55;12.40;;;5.50;99.90;;;;;;4991590;28;20045;-59
2022/12/18 02:14:16;;;;;;;25.15;12.05;;;5.50;99.90;;;;;;4990366;28;20045;-60
2022/12/18 02:17:31;;;;;;;24.60;12.02;;;5.40;99.90;;;;;;4912098;29;20044;-60
2022/12/18 02:21:03;;;;;;;23.35;11.55;;;5.40;99.90;;;;;;4916307;28;20047;-59
2022/12/18 02:24:07;;;;;;;;;;;5.30;99.90;;;;;;4991035;28;20050;-60
2022/12/18 02:27:11;;;;;;;25.20;10.93;;;5.30;99.90;;;;;;4990157;28;20419;-59
2022/12/18 02:30:17;;;;;;;20.77;11.13;;;5.20;99.90;;;;;;4990319;28;20068;-59
2022/12/18 02:33:22;;;;;;;23.25;9.88;;;5.30;99.90;;;;;;4990490;28;20053;-59
2022/12/18 02:36:28;;;;;;;20.40;10.80;;;5.30;99.90;;;;;;4989808;28;20042;-58
2022/12/18 02:39:36;;;;;;;22.98;11.13;;;5.30;99.90;;;;;;4990171;28;20251;-60
2022/12/18 02:42:42;;;;;;;36.72;14.63;;;5.30;99.90;;;;;;4990174;28;20050;-60
2022/12/18 02:45:54;;;;;;;27.05;14.45;;;5.30;99.90;;;;;;4990249;28;20049;-59
2022/12/18 02:49:12;;;;;;;28.48;14.13;;;5.30;99.90;;;;;;4990209;28;20053;-59
2022/12/18 02:52:25;;;;;;;29.40;17.58;;;5.30;99.90;;;;;;4990271;28;20057;-59
2022/12/18 02:56:09;;;;;;;27.88;14.80;;;5.30;99.90;;;;;;4989026;28;20053;-60
2022/12/18 02:59:31;;;;;;;28.95;14.85;;;5.30;99.90;;;;;;4990074;28;20050;-59
2022/12/18 03:02:46;;;;;;;29.45;14.27;;;5.30;99.90;;;;;;4989613;28;20405;-60
2022/12/18 03:05:58;;;;;;;29.73;16.48;;;5.20;99.90;;;;;;4989630;28;20050;-60
2022/12/18 03:09:10;;;;;;;30.38;14.27;;;5.10;99.90;;;;;;4989806;28;20053;-61
2022/12/18 03:12:30;;;;;;;23.08;13.50;;;5.10;99.90;;;;;;4990052;28;20049;-60
2022/12/18 03:15:42;;;;;;;23.17;12.00;;;5.00;99.90;;;;;;4989186;28;20053;-59
2022/12/18 03:18:57;;;;;;;18.83;10.10;;;5.00;99.90;;;;;;4989053;28;20049;-60
2022/12/18 03:22:04;;;;;;;25.02;12.20;;;4.90;99.90;;;;;;4988115;28;20041;-59
2022/12/18 03:25:19;;;;;;;24.13;11.77;;;4.90;99.90;;;;;;4988817;28;20049;-60
2022/12/18 03:28:24;;;;;;;23.85;11.23;;;4.80;99.90;;;;;;4989174;28;20046;-60
2022/12/18 03:31:39;;;;;;;23.55;12.15;;;4.70;99.90;;;;;;4989516;28;20057;-59
2022/12/18 03:34:48;;;;;;;31.05;16.35;;;4.60;99.90;;;;;;4989246;28;20050;-54
2022/12/18 03:37:54;;;;;;;33.25;18.48;;;4.50;99.90;;;;;;4988697;28;20405;-58
2022/12/18 03:41:01;;;;;;;25.98;16.38;;;4.50;99.90;;;;;;4989250;28;20057;-59
2022/12/18 03:44:13;;;;;;;32.92;17.50;;;4.50;99.90;;;;;;4988571;28;20508;-57
2022/12/18 03:47:34;;;;;;;39.30;18.58;;;4.50;99.90;;;;;;4989157;28;20054;-58
2022/12/18 03:50:55;;;;;;;32.17;17.20;;;4.40;99.90;;;;;;4992926;28;20056;-58
2022/12/18 03:54:04;;;;;;;37.28;19.52;;;4.50;99.90;;;;;;4990983;28;20410;-59
2022/12/18 03:57:33;;;;;;;34.63;18.08;;;4.60;99.90;;;;;;4992911;28;20049;-59
2022/12/18 04:00:37;;;;;;;31.60;17.10;;;4.70;99.90;;;;;;4981936;28;20048;-60
2022/12/18 04:03:49;;;;;;;33.90;18.17;;;4.70;99.90;;;;;;4992511;28;20045;-59
2022/12/18 04:06:57;;;;;;;27.40;16.98;;;4.80;99.90;;;;;;4993213;28;20037;-59
2022/12/18 04:10:03;;;;;;;32.13;17.20;;;4.90;99.90;;;;;;4992888;28;20045;-58
2022/12/18 04:13:09;;;;;;;23.75;15.45;;;5.00;99.90;;;;;;4993911;28;20058;-56
2022/12/18 04:16:14;;;;;;;30.48;16.42;;;5.20;99.90;;;;;;4982173;28;20537;-58
2022/12/18 04:19:21;;;;;;;28.92;17.17;;;5.20;99.90;;;;;;4992692;28;20405;-59
2022/12/18 04:22:27;;;;;;;25.42;15.55;;;5.20;99.90;;;;;;4993499;28;20512;-60
2022/12/18 04:25:36;;;;;;;36.65;15.38;;;5.10;99.90;;;;;;4992770;28;20520;-58
2022/12/18 04:28:51;;;;;;;21.75;14.18;;;5.00;99.90;;;;;;4992426;28;20045;-55
2022/12/18 04:31:55;;;;;;;18.90;12.40;;;4.90;99.90;;;;;;4993598;28;20057;-59
2022/12/18 04:35:01;;;;;;;65.55;15.35;;;4.80;99.90;;;;;;4991891;28;20049;-59
2022/12/18 04:38:08;;;;;;;534.30;59.67;;;4.70;99.90;;;;;;4992258;28;20053;-59
2022/12/18 04:41:11;;;;;;;446.95;52.83;;;4.70;99.90;;;;;;4993330;28;20046;-59
2022/12/18 04:44:17;;;;;;;34.90;12.23;;;4.70;99.90;;;;;;4991567;28;20422;-59
2022/12/18 04:47:21;;;;;;;25.00;10.65;;;4.70;99.90;;;;;;4993122;28;20049;-58
2022/12/18 04:50:25;;;;;;;23.30;8.65;;;4.70;99.90;;;;;;4992993;28;20033;-58
2022/12/18 04:53:29;;;;;;;18.63;8.57;;;4.70;99.90;;;;;;4992323;28;20061;-58
2022/12/18 04:56:33;;;;;;;16.63;8.43;;;4.70;99.90;;;;;;4992943;28;20046;-60
2022/12/18 04:59:38;;;;;;;16.98;8.95;;;4.70;99.90;;;;;;4991988;28;20055;-60
2022/12/18 05:02:42;;;;;;;20.45;10.48;;;4.60;99.90;;;;;;4992857;28;20038;-58
2022/12/18 05:05:50;;;;;;;18.52;9.93;;;4.60;99.90;;;;;;4992803;28;20505;-59
2022/12/18 05:08:54;;;;;;;23.70;9.90;;;4.60;99.90;;;;;;4992517;28;20378;-59
2022/12/18 05:11:58;;;;;;;19.50;10.20;;;4.70;99.90;;;;;;4992746;28;20125;-60
2022/12/18 05:15:03;;;;;;;20.35;10.63;;;4.60;99.90;;;;;;4991790;28;20049;-59
2022/12/18 05:18:07;;;;;;;17.40;11.00;;;4.60;99.90;;;;;;4991666;28;20216;-58
2022/12/18 05:21:13;;;;;;;18.02;10.30;;;4.50;99.90;;;;;;4992542;28;20041;-59
2022/12/18 05:24:17;;;;;;;18.33;8.75;;;4.60;99.90;;;;;;4991833;28;20430;-60
2022/12/18 05:27:21;;;;;;;20.92;10.07;;;4.60;99.90;;;;;;4992455;28;20053;-59
2022/12/18 05:30:27;;;;;;;25.13;12.43;;;4.60;99.90;;;;;;4991677;28;20053;-59
2022/12/18 05:33:33;;;;;;;28.60;13.75;;;4.60;99.90;;;;;;4991784;28;20409;-58
2022/12/18 05:36:36;;;;;;;31.35;15.98;;;4.80;99.90;;;;;;4992431;28;20053;-59
2022/12/18 05:39:43;;;;;;;44.33;20.48;;;4.90;99.90;;;;;;4992042;28;20041;-59
2022/12/18 05:42:46;;;;;;;53.15;23.05;;;5.00;99.90;;;;;;4992321;28;20460;-58
2022/12/18 05:45:52;;;;;;;35.45;17.60;;;5.00;99.90;;;;;;4991872;28;20041;-59
2022/12/18 05:49:00;;;;;;;42.50;18.52;;;5.00;99.90;;;;;;4991741;28;20049;-59
2022/12/18 05:52:05;;;;;;;32.38;15.68;;;5.00;99.90;;;;;;4991887;28;20066;-59
2022/12/18 05:55:09;;;;;;;61.72;16.40;;;4.90;99.90;;;;;;4991156;28;20037;-60
2022/12/18 05:58:14;;;;;;;29.70;12.95;;;4.60;99.90;;;;;;4991832;28;20042;-60
2022/12/18 06:01:21;;;;;;;27.23;16.15;;;4.40;99.90;;;;;;4991446;28;20056;-60
2022/12/18 06:04:28;;;;;;;27.10;14.13;;;4.30;99.90;;;;;;4991100;28;20041;-59
2022/12/18 06:07:32;;;;;;;19.98;12.57;;;4.30;99.90;;;;;;4991755;28;20045;-60
2022/12/18 06:10:37;;;;;;;39.72;16.48;;;4.30;99.90;;;;;;4990810;28;20405;-59
2022/12/18 06:13:41;;;;;;;26.30;13.85;;;4.40;99.90;;;;;;4990823;28;20413;-59
2022/12/18 06:16:45;;;;;;;27.70;14.68;;;4.40;99.90;;;;;;4991182;28;20049;-59
2022/12/18 06:19:49;;;;;;;25.70;14.82;;;4.50;99.90;;;;;;4991029;28;20055;-58
2022/12/18 06:22:53;;;;;;;29.30;17.35;;;4.50;99.90;;;;;;4991408;28;20049;-59
2022/12/18 06:25:57;;;;;;;28.13;16.98;;;4.60;99.90;;;;;;4991164;28;20528;-60
2022/12/18 06:29:01;;;;;;;30.90;17.20;;;4.60;99.90;;;;;;4990960;28;20049;-59
2022/12/18 06:32:05;;;;;;;38.92;19.45;;;4.70;99.90;;;;;;4991016;28;20049;-60
2022/12/18 06:35:09;;;;;;;31.58;17.80;;;4.80;99.90;;;;;;4989443;28;20065;-56
2022/12/18 06:38:13;;;;;;;40.40;21.85;;;4.70;99.90;;;;;;4990872;28;20409;-59
2022/12/18 06:41:20;;;;;;;60.45;20.75;;;4.60;99.90;;;;;;4990994;28;20037;-60
2022/12/18 06:44:25;;;;;;;207.10;24.02;;;4.50;99.90;;;;;;4990233;28;20397;-58
2022/12/18 06:47:29;;;;;;;540.90;33.42;;;4.30;99.90;;;;;;4990874;28;20045;-60
2022/12/18 06:50:34;;;;;;;297.42;22.02;;;4.10;99.90;;;;;;4990606;28;20338;-58
2022/12/18 06:53:37;;;;;;;71.88;11.25;;;4.00;99.90;;;;;;4990139;28;20157;-58
2022/12/18 06:56:42;;;;;;;327.42;33.63;;;3.90;99.90;;;;;;4990653;28;20041;-57
2022/12/18 06:59:46;;;;;;;410.95;37.20;;;4.00;99.90;;;;;;4990341;28;20528;-59
2022/12/18 07:02:49;;;;;;;73.20;14.60;;;4.00;99.90;;;;;;4990810;28;20313;-60
2022/12/18 07:05:53;;;;;;;43.83;14.10;;;4.10;99.90;;;;;;4991090;28;20053;-58
2022/12/18 07:08:58;;;;;;;63.15;17.23;;;4.10;99.90;;;;;;4990745;28;20083;-58
2022/12/18 07:12:01;;;;;;;42.38;17.40;;;4.20;99.90;;;;;;4990586;28;20065;-60
2022/12/18 07:15:06;;;;;;;30.42;16.48;;;4.60;99.90;;;;;;4989915;28;20053;-59
2022/12/18 07:18:11;;;;;;;27.77;15.75;;;5.70;99.90;;;;;;4990268;28;20045;-58
2022/12/18 07:21:18;;;;;;;25.60;13.68;;;6.90;99.90;;;;;;4989905;28;20037;-60
2022/12/18 07:24:23;;;;;;;18.67;10.88;;;7.00;99.90;;;;;;4989562;28;20049;-58
2022/12/18 07:27:28;;;;;;;22.15;11.57;;;7.60;99.90;;;;;;4990195;28;20506;-59
2022/12/18 07:30:32;;;;;;;20.95;12.05;;;7.60;99.90;;;;;;4989942;28;20041;-59
2022/12/18 07:33:39;;;;;;;31.45;9.18;;;7.20;99.90;;;;;;4989262;28;20057;-59
2022/12/18 07:36:43;;;;;;;50.25;9.80;;;7.10;99.90;;;;;;4989475;28;20057;-60
2022/12/18 07:39:47;;;;;;;50.05;9.77;;;7.70;99.90;;;;;;4989893;28;20051;-60
2022/12/18 07:42:50;;;;;;;138.75;10.93;;;8.00;99.90;;;;;;4990005;28;20038;-60
2022/12/18 07:45:55;;;;;;;10.82;6.85;;;8.30;99.90;;;;;;4990240;28;20045;-60
2022/12/18 07:48:58;;;;;;;79.03;8.00;;;9.00;99.90;;;;;;4989723;28;20517;-59
2022/12/18 07:52:03;;;;;;;13.35;7.75;;;9.70;99.90;;;;;;4989622;28;20054;-59
2022/12/18 07:55:07;;;;;;;11.32;9.27;;;10.60;99.90;;;;;;4989325;28;20034;-60
2022/12/18 07:58:11;;;;;;;93.75;11.35;;;11.20;99.90;;;;;;4989829;28;20065;-60
2022/12/18 08:01:16;;;;;;;32.13;8.85;;;11.20;99.90;;;;;;4989856;28;20061;-60
2022/12/18 08:04:20;;;;;;;48.17;7.03;;;12.10;99.90;;;;;;4989464;28;20065;-61
2022/12/18 08:07:25;;;;;;;5.57;4.15;;;12.70;99.90;;;;;;4990284;28;20050;-60
2022/12/18 08:10:29;;;;;;;6.40;3.85;;;14.50;99.90;;;;;;4989864;28;20038;-61
2022/12/18 08:13:33;;;;;;;4.57;3.40;;;16.30;99.90;;;;;;4989052;28;20046;-58
2022/12/18 08:16:38;;;;;;;5.53;3.28;;;17.20;99.90;;;;;;4989560;28;20387;-60
2022/12/18 08:19:41;;;;;;;3.25;2.65;;;18.70;99.90;;;;;;4989968;28;20050;-59
2022/12/18 08:22:45;;;;;;;3.50;3.00;;;19.60;99.90;;;;;;4989862;28;20605;-61
2022/12/18 08:25:50;;;;;;;6.03;3.35;;;20.40;99.90;;;;;;4989958;28;20046;-59
2022/12/18 08:28:56;;;;;;;7.57;4.00;;;21.60;99.90;;;;;;4989608;28;20046;-61
2022/12/18 08:32:00;;;;;;;5.95;3.40;;;22.50;99.90;;;;;;4989632;28;20049;-60
2022/12/18 08:35:04;;;;;;;8.35;3.55;;;22.90;97.00;;;;;;4990492;28;20248;-59
2022/12/18 08:38:08;;;;;;;5.35;3.25;;;21.60;99.10;;;;;;4993485;28;20054;-58
2022/12/18 08:41:16;;;;;;;5.30;3.55;;;21.20;99.60;;;;;;4993261;28;20051;-60
2022/12/18 08:44:38;;;;;;;5.80;3.33;;;20.60;99.50;;;;;;4992908;28;20049;-60
2022/12/18 08:47:42;;;;;;;6.45;4.38;;;19.40;99.90;;;;;;4993500;28;20042;-60
2022/12/18 08:50:59;;;;;;;6.10;4.90;;;19.10;99.90;;;;;;4993085;28;20426;-59
2022/12/18 08:54:05;;;;;;;5.30;3.63;;;19.60;99.90;;;;;;4992367;28;20045;-60
2022/12/18 08:57:10;;;;;;;6.82;3.95;;;21.50;99.40;;;;;;4992893;28;20513;-59
2022/12/18 09:00:15;;;;;;;6.05;3.50;;;23.00;97.70;;;;;;4992737;28;20046;-61
2022/12/18 09:03:22;;;;;;;4.95;3.45;;;22.30;95.90;;;;;;4992088;28;20038;-60
2022/12/18 09:06:26;;;;;;;3.92;3.28;;;22.20;97.80;;;;;;4992802;28;20453;-61
2022/12/18 09:09:31;;;;;;;7.05;3.50;;;23.30;97.10;;;;;;4992830;28;20038;-60
2022/12/18 09:12:35;;;;;;;7.10;3.40;;;24.50;96.50;;;;;;4992448;28;20053;-60
2022/12/18 09:15:42;;;;;;;5.18;3.55;;;23.90;95.80;;;;;;4992384;28;20042;-59
2022/12/18 09:18:47;;;;;;;5.40;3.42;;;25.30;93.80;;;;;;4992432;28;20410;-60
2022/12/18 09:21:52;;;;;;;4.20;3.10;;;24.20;94.30;;;;;;4992515;28;20310;-60
2022/12/18 09:24:55;;;;;;;7.20;3.92;;;25.30;94.20;;;;;;4991783;28;20042;-60
2022/12/18 09:28:00;;;;;;;7.90;3.90;;;23.00;94.50;;;;;;4992067;28;20516;-60
2022/12/18 09:31:07;;;;;;;4.97;3.72;;;24.90;94.10;;;;;;4992350;28;20433;-60
2022/12/18 09:34:11;;;;;;;8.02;4.30;;;26.50;92.90;;;;;;4991385;28;20041;-60
2022/12/18 09:37:15;;;;;;;8.18;4.47;;;26.90;92.20;;;;;;4992067;28;20050;-60
2022/12/18 09:40:23;;;;;;;9.65;4.32;;;27.00;91.80;;;;;;4991970;28;20508;-61
2022/12/18 09:43:44;;;;;;;4.97;3.08;;;26.50;91.80;;;;;;4991100;28;20053;-58
2022/12/18 09:47:11;;;;;;;5.18;3.40;;;24.90;93.10;;;;;;4991968;28;20411;-59
2022/12/18 09:50:31;;;;;;;5.82;3.55;;;23.10;94.00;;;;;;4994634;28;20055;-59
2022/12/18 09:53:40;;;;;;;4.37;3.60;;;20.70;96.50;;;;;;4990953;28;20046;-59
2022/12/18 09:56:46;;;;;;;6.45;3.50;;;20.20;98.20;;;;;;4991654;28;20522;-59
2022/12/18 09:59:59;;;;;;;3.85;3.33;;;21.40;97.70;;;;;;4991689;28;20402;-61
2022/12/18 10:03:15;;;;;;;5.70;3.72;;;23.30;95.80;;;;;;4991146;28;20037;-60
2022/12/18 10:06:22;;;;;;;8.18;3.60;;;23.20;96.10;;;;;;4991448;28;20034;-59
2022/12/18 10:10:01;;;;;;;6.82;3.47;;;24.50;95.40;;;;;;4991736;28;20050;-61
2022/12/18 10:13:28;;;;;;;5.00;2.80;;;26.40;93.70;;;;;;4990944;28;20046;-59
2022/12/18 10:16:56;;;;;;;7.70;3.55;;;28.00;91.30;;;;;;4989958;28;20051;-58
2022/12/18 10:20:10;;;;;;;5.80;3.50;;;27.60;91.30;;;;;;4991336;28;20033;-57
2022/12/18 10:23:20;;;;;;;8.07;3.10;;;25.70;91.90;;;;;;4990569;28;20411;-59
2022/12/18 10:26:25;;;;;;;4.10;3.22;;;25.30;92.10;;;;;;4990788;28;20049;-59
2022/12/18 10:29:31;;;;;;;3.83;3.03;;;24.80;93.60;;;;;;4990842;28;20038;-59
2022/12/18 10:32:35;;;;;;;4.55;3.60;;;23.70;94.00;;;;;;4989704;28;20038;-60
2022/12/18 10:35:42;;;;;;;6.22;3.90;;;22.10;95.30;;;;;;4990736;28;20041;-60
2022/12/18 10:38:46;;;;;;;4.65;3.75;;;22.40;95.50;;;;;;4991197;28;20401;-60
2022/12/18 10:41:51;;;;;;;5.70;4.07;;;23.10;94.80;;;;;;4991344;28;20500;-60
2022/12/18 10:45:17;;;;;;;7.63;4.55;;;22.10;95.40;;;;;;4990448;28;20047;-59
2022/12/18 10:48:22;;;;;;;7.05;4.00;;;23.00;95.60;;;;;;4990842;28;20053;-60
2022/12/18 10:51:35;;;;;;;5.82;3.72;;;22.70;95.60;;;;;;4990989;28;20063;-59
2022/12/18 10:54:40;;;;;;;5.20;3.60;;;23.70;94.20;;;;;;4989967;28;20038;-60
2022/12/18 10:57:44;;;;;;;6.40;4.05;;;23.80;94.20;;;;;;4989912;28;20413;-58
2022/12/18 11:01:19;;;;;;;5.82;3.67;;;23.20;94.50;;;;;;4990873;28;20417;-59
2022/12/18 11:04:29;;;;;;;5.38;4.00;;;22.40;96.10;;;;;;4989747;28;20041;-58
2022/12/18 11:07:50;;;;;;;5.38;4.18;;;23.60;94.50;;;;;;4991069;28;20038;-60
2022/12/18 11:10:54;;;;;;;6.20;4.07;;;23.20;95.30;;;;;;4990938;28;20042;-60
2022/12/18 11:14:26;;;;;;;7.45;4.53;;;21.10;96.10;;;;;;4989721;28;20157;-56
2022/12/18 11:17:36;;;;;;;6.57;4.88;;;23.90;94.40;;;;;;4989641;28;20051;-58
2022/12/18 11:20:41;;;;;;;8.80;5.25;;;25.50;93.80;;;;;;4990495;28;20042;-61
2022/12/18 11:23:54;;;;;;;8.40;5.38;;;24.80;93.60;;;;;;4989070;28;20061;-61
2022/12/18 11:27:04;;;;;;;6.20;4.57;;;26.20;92.80;;;;;;4990486;28;20114;-59
2022/12/18 11:30:26;;;;;;;5.72;4.43;;;27.90;92.20;;;;;;4990302;28;20057;-61
2022/12/18 11:33:30;;;;;;;5.93;4.53;;;29.90;91.00;;;;;;4989313;28;20049;-60
2022/12/18 11:36:45;;;;;;;8.32;4.43;;;29.70;89.90;;;;;;4989948;28;20054;-59
2022/12/18 11:40:12;;;;;;;8.27;4.22;;;30.40;88.10;;;;;;4989856;28;20045;-60
2022/12/18 11:43:26;;;;;;;6.50;4.60;;;29.80;85.20;;;;;;4991449;28;20329;-60
2022/12/18 11:46:43;;;;;;;4.63;3.72;;;27.40;90.90;;;;;;4990131;28;20051;-59
2022/12/18 11:49:49;;;;;;;6.88;4.20;;;27.70;89.50;;;;;;4990068;28;20054;-59
2022/12/18 11:52:53;;;;;;;7.55;4.13;;;29.20;88.90;;;;;;4989846;28;20102;-57
2022/12/18 11:56:07;;;;;;;5.32;4.00;;;27.90;87.80;;;;;;4989747;28;20517;-61
2022/12/18 11:59:25;;;;;;;6.07;3.70;;;28.20;88.60;;;;;;4990091;28;20049;-59
2022/12/18 12:02:29;;;;;;;6.47;4.40;;;29.50;86.10;;;;;;4990444;28;20049;-59
2022/12/18 12:05:39;;;;;;;7.07;4.03;;;26.40;90.50;;;;;;4989865;28;20053;-60
2022/12/18 12:08:46;;;;;;;5.60;3.83;;;27.20;90.00;;;;;;4991025;28;20050;-59
2022/12/18 12:12:25;;;;;;;8.40;4.25;;;27.90;90.70;;;;;;4994502;28;20052;-59
2022/12/18 12:15:44;;;;;;;5.97;3.67;;;26.40;90.10;;;;;;4992660;28;20057;-59
2022/12/18 12:19:03;;;;;;;6.32;3.83;;;28.30;89.70;;;;;;4993816;28;20033;-57
2022/12/18 12:22:39;;;;;;;4.57;3.53;;;29.40;87.00;;;;;;4993819;28;20049;-60
2022/12/18 12:26:07;;;;;;;5.70;3.10;;;29.70;85.90;;;;;;4993288;28;20057;-60
2022/12/18 12:29:42;;;;;;;5.85;3.33;;;30.60;84.10;;;;;;4993717;28;20045;-60
2022/12/18 12:33:00;;;;;;;4.28;2.97;;;31.20;83.70;;;;;;4993598;28;20054;-60
2022/12/18 12:36:22;;;;;;;4.97;3.25;;;30.80;82.60;;;;;;4993147;28;20048;-60
2022/12/18 12:39:36;;;;;;;5.43;3.22;;;31.10;82.40;;;;;;4993494;28;20040;-60
2022/12/18 12:46:16;;;;;;;4.80;2.65;;;30.80;82.70;;;;;;4993164;28;20053;-59
2022/12/18 12:49:24;;;;;;;3.60;2.10;;;31.20;82.80;;;;;;4993140;28;20045;-60
2022/12/18 12:52:37;;;;;;;3.67;2.05;;;31.50;80.90;;;;;;4993194;28;20050;-58
2022/12/18 12:55:42;;;;;;;3.47;1.98;;;31.50;79.90;;;;;;4992614;28;20053;-59
2022/12/18 12:58:49;;;;;;;4.00;2.20;;;31.30;79.40;;;;;;4992929;28;20049;-60
2022/12/18 13:02:03;;;;;;;3.63;2.28;;;30.30;80.60;;;;;;4992976;28;20045;-60
2022/12/18 13:05:46;;;;;;;5.78;2.35;;;28.90;81.40;;;;;;4991883;28;20374;-60
2022/12/18 13:08:58;;;;;;;3.47;1.70;;;29.50;81.80;;;;;;4992811;28;20054;-60
2022/12/18 13:15:27;;;;;;;3.63;1.83;;;30.40;81.30;;;;;;4991981;28;20049;-59
2022/12/18 13:18:32;;;;;;;4.28;1.98;;;30.80;82.20;;;;;;4992991;28;20053;-60
2022/12/18 13:21:36;;;;;;;5.07;2.00;;;31.30;81.00;;;;;;4992362;28;20425;-56
2022/12/18 13:24:42;;;;;;;6.15;1.92;;;30.00;79.60;;;;;;4991853;28;20050;-57
2022/12/18 13:28:00;;;;;;;3.20;1.90;;;28.30;80.40;;;;;;4993080;28;20065;-58
2022/12/18 13:31:04;;;;;;;3.92;2.20;;;28.30;82.80;;;;;;4992815;28;20049;-58
2022/12/18 13:34:22;;;;;;;6.45;2.30;;;28.40;82.10;;;;;;4991837;28;20425;-59
2022/12/18 13:37:31;;;;;;;6.43;2.42;;;27.40;83.70;;;;;;4991929;28;20524;-58
2022/12/18 13:40:39;;;;;;;5.88;2.47;;;28.10;84.20;;;;;;4991889;28;20320;-58
2022/12/18 13:43:47;;;;;;;6.32;2.85;;;27.30;81.50;;;;;;4991577;28;20401;-57
2022/12/18 13:46:52;;;;;;;3.65;2.10;;;26.00;84.60;;;;;;4991760;28;20512;-60
2022/12/18 13:49:57;;;;;;;3.75;1.90;;;26.70;86.70;;;;;;4992116;28;20037;-60
2022/12/18 13:53:02;;;;;;;5.35;2.20;;;27.40;83.70;;;;;;4991946;28;20070;-58
2022/12/18 13:56:08;;;;;;;4.35;1.52;;;27.50;83.20;;;;;;4991435;28;20049;-59
2022/12/18 13:59:22;;;;;;;3.47;1.73;;;27.70;83.00;;;;;;4992084;28;20045;-58
2022/12/18 14:02:28;;;;;;;2.95;1.75;;;27.80;84.10;;;;;;4991918;28;20045;-60
2022/12/18 14:05:35;;;;;;;4.53;1.30;;;27.70;82.40;;;;;;4990717;28;20505;-58
2022/12/18 14:08:42;;;;;;;3.10;1.63;;;27.60;82.90;;;;;;4991650;28;20041;-56
2022/12/18 14:11:50;;;;;;;2.25;1.27;;;27.30;83.40;;;;;;4991223;28;20406;-57
2022/12/18 14:14:56;;;;;;;1.88;0.98;;;27.10;82.10;;;;;;4990644;28;20045;-58
2022/12/18 14:18:20;;;;;;;2.97;1.42;;;26.70;82.70;;;;;;4991483;28;20065;-54
2022/12/18 14:21:29;;;;;;;3.63;1.00;;;25.80;82.70;;;;;;4991345;28;20512;-59
2022/12/18 14:24:33;;;;;;;3.42;1.10;;;25.50;83.50;;;;;;4990519;28;20038;-56
2022/12/18 14:27:38;;;;;;;3.95;1.60;;;24.90;85.00;;;;;;4991347;28;20422;-58
2022/12/18 14:30:45;;;;;;;2.63;1.40;;;24.70;84.80;;;;;;4991374;28;20061;-56
2022/12/18 14:33:49;;;;;;;2.95;1.80;;;24.50;85.10;;;;;;4989755;28;20053;-56
2022/12/18 14:36:55;;;;;;;5.85;1.35;;;24.60;87.40;;;;;;4990524;28;20417;-58
2022/12/18 14:40:02;;;;;;;4.72;1.50;;;24.40;86.20;;;;;;4991147;28;20045;-58
2022/12/18 14:43:11;;;;;;;1.67;1.23;;;24.20;86.60;;;;;;4991112;28;20053;-59
2022/12/18 14:46:33;;;;;;;2.97;1.77;;;24.20;88.00;;;;;;4990691;28;20516;-58
2022/12/18 14:49:42;;;;;;;3.00;1.48;;;24.00;86.70;;;;;;4990892;28;20061;-58
2022/12/18 14:52:46;;;;;;;3.72;1.60;;;23.50;87.90;;;;;;4990915;28;20516;-58
2022/12/18 14:55:51;;;;;;;3.33;1.80;;;23.00;90.10;;;;;;4990389;28;20045;-59
2022/12/18 14:59:24;;;;;;;2.03;1.40;;;22.60;90.30;;;;;;4990622;28;20061;-59
2022/12/18 15:02:28;;;;;;;3.60;1.88;;;22.00;89.70;;;;;;4991210;28;20049;-57
2022/12/18 15:05:33;;;;;;;3.25;1.83;;;21.30;91.50;;;;;;4990379;28;20540;-60
2022/12/18 15:08:37;;;;;;;3.35;1.70;;;20.80;91.60;;;;;;4990907;28;20045;-58
2022/12/18 15:11:41;;;;;;;1.98;1.60;;;20.30;92.20;;;;;;4990948;28;20041;-57
2022/12/18 15:14:45;;;;;;;2.70;1.50;;;19.80;92.50;;;;;;4990230;28;20048;-58
2022/12/18 15:17:49;;;;;;;3.65;1.83;;;19.20;93.70;;;;;;4990324;28;20418;-58
2022/12/18 15:20:58;;;;;;;4.00;1.90;;;18.50;95.20;;;;;;4990717;28;20053;-59
2022/12/18 15:24:02;;;;;;;5.13;2.53;;;17.80;95.80;;;;;;4989648;28;20041;-56
2022/12/18 15:27:33;;;;;;;8.80;3.20;;;16.80;97.40;;;;;;4989733;28;20053;-57
2022/12/18 15:30:36;;;;;;;5.93;2.83;;;16.10;99.40;;;;;;4990456;28;20057;-60
2022/12/18 15:33:50;;;;;;;6.32;2.97;;;15.20;99.90;;;;;;4989733;28;20074;-60
2022/12/18 15:36:55;;;;;;;3.28;2.20;;;14.50;99.90;;;;;;4989822;28;20528;-57
2022/12/18 15:39:59;;;;;;;94.55;48.88;;;13.90;99.90;;;;;;4990258;28;20052;-60
2022/12/18 15:46:30;;;;;;;28.25;20.13;;;12.90;99.90;;;;;;4989957;28;20053;-58
2022/12/18 15:49:34;;;;;;;18.83;13.10;;;12.30;99.90;;;;;;4990394;28;20045;-57
2022/12/18 15:52:44;;;;;;;16.20;11.20;;;11.90;99.90;;;;;;4990269;28;20049;-59
2022/12/18 15:59:16;;;;;;;23.40;16.70;;;11.30;99.90;;;;;;4989838;28;20045;-59
2022/12/18 16:02:22;;;;;;;29.15;17.73;;;11.10;99.90;;;;;;4989451;28;20046;-57
2022/12/18 16:05:27;;;;;;;34.50;18.92;;;10.90;99.90;;;;;;4989350;28;20053;-56
2022/12/18 16:08:32;;;;;;;30.52;19.88;;;10.70;99.90;;;;;;4989810;28;20050;-59
2022/12/18 16:11:40;;;;;;;39.95;26.83;;;10.50;99.90;;;;;;4990065;28;20057;-57
2022/12/18 16:14:45;;;;;;;40.03;25.27;;;10.30;99.90;;;;;;4989237;28;20061;-58
2022/12/18 16:17:49;;;;;;;38.53;23.92;;;10.20;99.90;;;;;;4989112;28;20516;-58
2022/12/18 16:20:53;;;;;;;35.92;20.95;;;10.30;99.90;;;;;;4990095;28;20045;-58
2022/12/18 16:23:57;;;;;;;36.42;21.80;;;10.20;99.90;;;;;;4989122;28;20517;-59
2022/12/18 16:27:02;;;;;;;50.10;27.50;;;10.20;99.90;;;;;;4987465;28;20069;-58
2022/12/18 16:30:11;;;;;;;36.13;22.63;;;10.20;99.90;;;;;;4989890;28;20708;-55